Portada
METAR-TAF:

METAR-TAF

Aeroports :

Bermudes, Bermudes

latitud: 32-22N, longitud: 064-41W, altitud: 6 m

Observació

L'informe es va fer fa 31 minuts, a les 13:55 UTC
Vent 11 kt del Sud-Est
Temperatura 22°C
Humitat 69%
Pressió 1024 hPa
Visibilitat 10 km o més
Núvols disperses a una alçada de 2500 ft
Cel ennuvolat a una alçada de 4500 ft
Cel ennuvolat a una alçada de 30000 ft

METAR: TXKF 221355Z 14011KT 9999 SCT025 BKN045 BKN300 22/16 Q1024

Hora: 11:26 (14:26 UTC)

Pronòstic

L'informe es va fer fa 2 hores i 51 minuts, a les 11:35 UTC
Pronòstic vàlid del 22 a les 12 UTC al 23 a les 12 UTC
Vent 10 kt del Sud-Est
Visibilitat 10 km o més
Escasses núvols a una alçada de 3000 ft
Cel ennuvolat a una alçada de 30000 ft

TAF: TXKF 221135Z 2212/2312 13010KT 9999 FEW030 BKN300

Observacions i pronòstics meteorològics de més de 4000 aeroports (METAR i TAF).

Les estacions disponibles són els punts grocs i vermells al mapa.

Posi el ratolí al punt desitjat per veure el nom de l'estació.

Feu clic per veure les observacions i els pronòstics meteorològics.

Per canviar el mapa: feu clic els botons verds amb una creu de color negre per apropar; al botó verd amb un guió per allunyar la imatge; o en les fletxes verdes per a mapes adjacents.


METAR-TAF: